createdAt,value
2023-03-20T00:02:00.869Z,38.38
2023-03-20T00:04:29.689Z,44.00
2023-03-20T00:06:56.710Z,42.25
2023-03-20T00:09:25.640Z,42.03
2023-03-20T00:11:54.497Z,38.38
2023-03-20T00:14:24.582Z,40.15
2023-03-20T00:16:52.338Z,39.35
2023-03-20T00:19:26.345Z,44.63
2023-03-20T00:21:54.912Z,42.50
2023-03-20T00:24:22.863Z,44.80
2023-03-20T00:26:51.827Z,47.72
2023-03-20T00:29:24.875Z,44.97
2023-03-20T00:31:52.523Z,39.15
2023-03-20T00:34:23.534Z,41.80
2023-03-20T00:36:51.609Z,42.70
2023-03-20T00:39:18.886Z,40.85
2023-03-20T00:42:01.926Z,38.45
2023-03-20T00:44:36.251Z,36.80
2023-03-20T00:47:07.011Z,38.67
2023-03-20T00:49:35.780Z,43.80
2023-03-20T00:52:03.622Z,38.63
2023-03-20T00:54:31.236Z,40.80
2023-03-20T00:57:02.604Z,40.40
2023-03-20T00:59:34.485Z,40.42
2023-03-20T01:02:02.725Z,40.53
2023-03-20T01:04:39.245Z,38.90
2023-03-20T01:07:07.452Z,44.45
2023-03-20T01:09:34.314Z,43.08
2023-03-20T01:12:02.236Z,42.60
2023-03-20T01:14:29.209Z,40.40
2023-03-20T01:16:56.202Z,38.65
2023-03-20T01:19:23.029Z,41.40
2023-03-20T01:21:50.298Z,39.50
2023-03-20T01:24:17.167Z,40.28
2023-03-20T01:26:45.149Z,42.53
2023-03-20T01:29:27.693Z,41.60
2023-03-20T01:31:54.682Z,41.40
2023-03-20T01:34:21.622Z,44.22
2023-03-20T01:36:53.854Z,38.78
2023-03-20T01:41:51.044Z,38.97
2023-03-20T01:44:30.816Z,44.60
2023-03-20T01:46:58.251Z,43.33
2023-03-20T01:49:25.022Z,49.95
2023-03-20T01:51:52.878Z,45.63
2023-03-20T01:54:32.859Z,38.22
2023-03-20T01:57:14.094Z,40.13
2023-03-20T01:59:49.966Z,40.70
2023-03-20T02:02:22.049Z,42.65
2023-03-20T02:04:54.102Z,41.92
2023-03-20T02:07:23.369Z,41.15
2023-03-20T02:09:50.966Z,44.05
2023-03-20T02:12:19.577Z,39.65
2023-03-20T02:14:48.149Z,44.42
2023-03-20T02:17:15.582Z,42.75
2023-03-20T02:19:57.629Z,39.33
2023-03-20T02:22:30.862Z,40.92
2023-03-20T02:25:28.571Z,45.20
2023-03-20T02:28:13.698Z,46.42
2023-03-20T02:30:51.681Z,47.28
2023-03-20T02:33:30.424Z,41.95
2023-03-20T02:36:28.727Z,42.80
2023-03-20T02:39:25.894Z,43.08
2023-03-20T02:42:10.736Z,42.35
2023-03-20T02:44:51.581Z,39.83
2023-03-20T02:47:27.264Z,43.55
2023-03-20T02:50:17.191Z,41.88
2023-03-20T02:53:02.828Z,43.42
2023-03-20T02:55:35.815Z,48.20
2023-03-20T02:58:08.639Z,46.22
2023-03-20T03:00:40.860Z,43.13
2023-03-20T03:06:09.188Z,41.70
2023-03-20T03:08:41.423Z,42.20
2023-03-20T03:13:40.326Z,41.70
2023-03-20T03:16:12.304Z,42.97
2023-03-20T03:18:42.393Z,44.20
2023-03-20T03:21:12.059Z,40.22
2023-03-20T03:23:49.350Z,40.92
2023-03-20T03:26:31.470Z,43.28
2023-03-20T03:29:14.343Z,41.67
2023-03-20T03:31:42.711Z,45.45
2023-03-20T03:34:13.704Z,44.20
2023-03-20T03:37:05.807Z,45.25
2023-03-20T03:39:52.499Z,43.50
2023-03-20T03:42:24.973Z,42.97
2023-03-20T03:45:15.792Z,45.50
2023-03-20T03:47:47.009Z,44.15
2023-03-20T03:50:30.426Z,45.28
2023-03-20T03:53:01.530Z,43.17
2023-03-20T03:55:35.689Z,42.97
2023-03-20T03:58:18.771Z,45.22
2023-03-20T04:00:50.690Z,42.47
2023-03-20T04:03:20.361Z,41.80
2023-03-20T04:05:47.866Z,49.75
2023-03-20T04:08:16.299Z,45.88
2023-03-20T04:10:43.104Z,44.63
2023-03-20T04:13:10.522Z,46.25
2023-03-20T04:15:38.396Z,47.00
2023-03-20T04:18:05.689Z,47.35
2023-03-20T04:20:32.591Z,43.00
2023-03-20T04:22:59.552Z,46.30
2023-03-20T04:25:26.780Z,46.50
2023-03-20T04:27:53.866Z,47.22
2023-03-20T04:30:20.667Z,46.35
2023-03-20T04:32:47.561Z,44.55
2023-03-20T04:35:14.398Z,47.70
2023-03-20T04:37:41.164Z,50.78
2023-03-20T04:40:08.342Z,46.60
2023-03-20T04:42:35.284Z,44.45
2023-03-20T04:45:02.286Z,44.50
2023-03-20T04:47:29.090Z,46.28
2023-03-20T04:49:56.182Z,47.90
2023-03-20T04:52:22.960Z,52.83
2023-03-20T04:54:49.732Z,48.15
2023-03-20T04:57:16.826Z,52.72
2023-03-20T04:59:43.636Z,46.42
2023-03-20T05:02:14.958Z,44.88
2023-03-20T05:04:44.841Z,47.57
2023-03-20T05:07:11.637Z,44.85
2023-03-20T05:09:38.460Z,48.42
2023-03-20T05:12:05.807Z,45.08
2023-03-20T05:14:32.667Z,47.25
2023-03-20T05:16:59.488Z,48.78
2023-03-20T05:19:26.409Z,53.35
2023-03-20T05:21:53.455Z,49.78
2023-03-20T05:24:21.076Z,49.70
2023-03-20T05:26:47.907Z,50.55
2023-03-20T05:29:14.755Z,39.30
2023-03-20T05:31:41.772Z,47.10
2023-03-20T05:34:08.541Z,46.65
2023-03-20T05:36:35.301Z,45.83
2023-03-20T05:39:02.126Z,44.22
2023-03-20T05:41:28.895Z,48.08
2023-03-20T05:43:55.670Z,49.58
2023-03-20T05:46:23.385Z,49.53
2023-03-20T05:48:50.352Z,48.78
2023-03-20T05:51:17.209Z,47.22
2023-03-20T05:53:43.982Z,48.92
2023-03-20T05:56:10.936Z,53.03
2023-03-20T05:58:37.776Z,47.53
2023-03-20T06:01:05.171Z,54.35
2023-03-20T06:03:31.992Z,52.78
2023-03-20T06:05:58.796Z,46.00
2023-03-20T06:08:25.845Z,52.85
2023-03-20T06:10:53.050Z,49.25
2023-03-20T06:13:19.975Z,51.92
2023-03-20T06:15:46.981Z,45.22
2023-03-20T06:18:13.886Z,48.72
2023-03-20T06:20:41.098Z,49.30
2023-03-20T06:23:08.067Z,47.58
2023-03-20T06:25:35.314Z,49.80
2023-03-20T06:28:02.467Z,48.13
2023-03-20T06:30:29.431Z,49.15
2023-03-20T06:32:56.280Z,49.97
2023-03-20T06:35:23.275Z,55.08
2023-03-20T06:37:50.031Z,49.10
2023-03-20T06:40:16.962Z,51.38
2023-03-20T06:42:43.759Z,49.17
2023-03-20T06:45:11.253Z,50.97
2023-03-20T06:47:38.066Z,50.17
2023-03-20T06:50:05.406Z,46.85
2023-03-20T06:52:32.174Z,45.25
2023-03-20T06:54:58.989Z,52.38
2023-03-20T06:57:25.955Z,49.50
2023-03-20T06:59:52.742Z,48.10
2023-03-20T07:02:20.260Z,49.45
2023-03-20T07:04:47.340Z,51.33
2023-03-20T07:07:21.400Z,47.08
2023-03-20T07:09:48.648Z,49.40
2023-03-20T07:12:16.699Z,49.97
2023-03-20T07:14:43.591Z,55.92
2023-03-20T07:17:11.125Z,55.80
2023-03-20T07:19:38.384Z,57.03
2023-03-20T07:22:08.024Z,50.10
2023-03-20T07:24:35.250Z,46.75
2023-03-20T07:27:02.204Z,45.72
2023-03-20T07:29:29.033Z,47.28
2023-03-20T07:31:55.951Z,47.03
2023-03-20T07:34:22.804Z,52.08
2023-03-20T07:36:49.593Z,44.53
2023-03-20T07:39:16.831Z,43.63
2023-03-20T07:41:43.641Z,47.60
2023-03-20T07:44:10.712Z,44.22
2023-03-20T07:46:37.573Z,44.30
2023-03-20T07:49:05.728Z,41.35
2023-03-20T07:51:32.857Z,40.38
2023-03-20T07:53:59.707Z,41.05
2023-03-20T07:56:26.539Z,42.97
2023-03-20T07:58:53.279Z,42.13
2023-03-20T08:01:20.112Z,43.15
2023-03-20T08:03:47.703Z,40.47
2023-03-20T08:06:14.542Z,49.83
2023-03-20T08:08:41.356Z,45.20
2023-03-20T08:11:08.153Z,42.35
2023-03-20T08:13:34.956Z,41.08
2023-03-20T08:16:01.739Z,41.72
2023-03-20T08:18:28.454Z,38.47
2023-03-20T08:20:55.402Z,41.00
2023-03-20T08:23:23.431Z,37.40
2023-03-20T08:25:52.161Z,38.28
2023-03-20T08:28:19.177Z,44.33
2023-03-20T08:30:46.382Z,41.25
2023-03-20T08:33:14.802Z,37.80
2023-03-20T08:35:41.736Z,38.40
2023-03-20T08:38:12.322Z,38.15
2023-03-20T08:40:42.453Z,40.33
2023-03-20T08:43:09.822Z,40.65
2023-03-20T08:45:37.032Z,39.67
2023-03-20T08:48:04.160Z,35.78
2023-03-20T08:50:31.573Z,44.35
2023-03-20T08:52:58.577Z,42.90
2023-03-20T08:55:25.440Z,41.63
2023-03-20T08:57:54.467Z,39.28
2023-03-20T09:00:21.470Z,38.28
2023-03-20T09:02:48.443Z,38.65
2023-03-20T09:05:15.481Z,37.03
2023-03-20T09:07:42.367Z,44.28
2023-03-20T09:10:10.938Z,39.60
2023-03-20T09:12:38.186Z,39.33
2023-03-20T09:15:05.975Z,39.65
2023-03-20T09:17:32.870Z,36.92
2023-03-20T09:19:59.696Z,37.13
2023-03-20T09:22:26.505Z,39.28
2023-03-20T09:24:53.354Z,33.05
2023-03-20T09:27:20.283Z,38.53
2023-03-20T09:29:47.093Z,39.53
2023-03-20T09:32:15.348Z,37.33
2023-03-20T09:34:42.413Z,40.20
2023-03-20T09:37:09.470Z,41.65
2023-03-20T09:39:36.392Z,36.92
2023-03-20T09:42:44.067Z,37.95
2023-03-20T09:45:26.884Z,40.70
2023-03-20T09:48:18.989Z,59.97
2023-03-20T09:51:31.863Z,42.10
2023-03-20T09:54:11.511Z,51.85
2023-03-20T09:56:38.572Z,41.30
2023-03-20T09:59:06.844Z,44.72
2023-03-20T10:01:54.420Z,40.83
2023-03-20T10:04:23.323Z,41.03
2023-03-20T10:06:50.086Z,38.60
2023-03-20T10:09:25.900Z,40.08
2023-03-20T10:12:23.469Z,39.40
2023-03-20T10:15:00.956Z,50.05
2023-03-20T10:17:58.685Z,40.55
2023-03-20T10:20:35.511Z,40.83
2023-03-20T10:23:14.391Z,36.00
2023-03-20T10:25:47.475Z,37.38
2023-03-20T10:28:20.508Z,42.13
2023-03-20T10:30:56.402Z,40.38
2023-03-20T10:33:38.163Z,40.25
2023-03-20T10:36:33.942Z,36.30
2023-03-20T10:39:10.542Z,36.92
2023-03-20T10:41:41.766Z,38.00
2023-03-20T10:44:22.512Z,44.75
2023-03-20T10:46:54.360Z,36.10
2023-03-20T10:52:01.253Z,44.08
2023-03-20T10:54:32.799Z,38.15
2023-03-20T10:57:02.037Z,36.55
2023-03-20T10:59:49.237Z,38.17
2023-03-20T11:02:18.243Z,43.97
2023-03-20T11:04:45.290Z,38.15
2023-03-20T11:07:37.338Z,40.85
2023-03-20T11:10:07.979Z,38.75
2023-03-20T11:12:41.106Z,38.20
2023-03-20T11:15:32.225Z,40.47
2023-03-20T11:18:01.780Z,35.38
2023-03-20T11:20:35.441Z,36.35
2023-03-20T11:23:05.608Z,36.90
2023-03-20T11:25:40.010Z,36.22
2023-03-20T11:28:38.324Z,36.55
2023-03-20T11:31:14.237Z,41.60
2023-03-20T11:33:44.945Z,38.15
2023-03-20T11:36:41.054Z,41.15
2023-03-20T11:39:14.756Z,36.35
2023-03-20T11:41:53.002Z,40.10
2023-03-20T11:44:27.110Z,39.65
2023-03-20T11:47:04.267Z,42.67
2023-03-20T11:49:47.755Z,41.80
2023-03-20T11:52:20.539Z,36.20
2023-03-20T11:54:53.692Z,38.15
2023-03-20T11:57:40.107Z,37.63
2023-03-20T12:00:25.421Z,41.60
2023-03-20T12:02:52.540Z,45.55
2023-03-20T12:05:39.792Z,41.15
2023-03-20T12:08:16.699Z,36.75
2023-03-20T12:10:49.243Z,45.63
2023-03-20T12:13:26.233Z,39.63
2023-03-20T12:15:58.198Z,37.97
2023-03-20T12:18:38.989Z,43.15
2023-03-20T12:21:23.819Z,42.50
2023-03-20T12:24:01.216Z,40.08
2023-03-20T12:26:35.119Z,39.92
2023-03-20T12:29:07.842Z,41.80
2023-03-20T12:31:50.265Z,38.95
2023-03-20T12:34:32.263Z,42.70
2023-03-20T12:39:32.049Z,38.75
2023-03-20T12:42:14.182Z,39.40
2023-03-20T12:45:01.350Z,50.63
2023-03-20T12:47:59.288Z,39.15
2023-03-20T12:50:39.202Z,43.58
2023-03-20T12:53:24.297Z,40.90
2023-03-20T12:56:09.111Z,39.67
2023-03-20T12:59:02.002Z,42.50
2023-03-20T13:01:40.772Z,42.33
2023-03-20T13:04:27.874Z,44.38
2023-03-20T13:07:03.033Z,39.67
2023-03-20T13:10:03.997Z,38.63
2023-03-20T13:13:05.599Z,40.85
2023-03-20T13:15:49.427Z,39.53
2023-03-20T13:18:54.476Z,40.65
2023-03-20T13:21:56.695Z,52.88
2023-03-20T13:27:07.995Z,44.95
2023-03-20T13:30:04.874Z,43.28
2023-03-20T13:32:46.926Z,46.55
2023-03-20T13:38:06.092Z,42.80
2023-03-20T13:40:44.023Z,42.92
2023-03-20T13:43:37.583Z,45.95
2023-03-20T13:46:12.299Z,42.67
2023-03-20T13:48:41.344Z,40.53
2023-03-20T13:51:22.106Z,40.72
2023-03-20T13:54:00.808Z,39.33
2023-03-20T13:56:42.822Z,44.05
2023-03-20T14:02:18.437Z,45.10
2023-03-20T14:04:47.656Z,43.40
2023-03-20T14:07:47.700Z,44.92
2023-03-20T14:10:24.118Z,43.10
2023-03-20T14:12:53.967Z,47.50
2023-03-20T14:15:21.529Z,45.83
2023-03-20T14:17:50.908Z,42.25
2023-03-20T14:20:39.508Z,46.28
2023-03-20T14:23:07.517Z,41.17
2023-03-20T14:25:43.537Z,46.63
2023-03-20T14:28:13.429Z,44.80
2023-03-20T14:30:47.613Z,48.40
2023-03-20T14:33:17.376Z,43.05
2023-03-20T14:36:04.013Z,42.33
2023-03-20T14:38:39.076Z,39.83
2023-03-20T14:41:21.215Z,64.25
2023-03-20T14:44:08.904Z,45.67
2023-03-20T14:46:44.615Z,42.28
2023-03-20T14:49:27.400Z,43.13
2023-03-20T14:52:01.361Z,43.92
2023-03-20T14:54:30.169Z,44.15
2023-03-20T14:57:15.981Z,44.53
2023-03-20T14:59:54.289Z,40.50
2023-03-20T15:02:53.707Z,45.20
2023-03-20T15:05:30.086Z,42.28
2023-03-20T15:08:03.436Z,37.97
2023-03-20T15:10:30.753Z,41.40
2023-03-20T15:12:58.114Z,42.53
2023-03-20T15:15:28.887Z,44.58
2023-03-20T15:17:55.666Z,43.53
2023-03-20T15:20:25.301Z,48.08
2023-03-20T15:22:57.658Z,41.90
2023-03-20T15:25:49.137Z,44.63
2023-03-20T15:28:19.883Z,44.53
2023-03-20T15:30:49.367Z,44.17
2023-03-20T15:33:26.575Z,41.28
2023-03-20T15:35:54.024Z,40.13
2023-03-20T15:38:21.534Z,49.50
2023-03-20T15:40:51.395Z,42.42
2023-03-20T15:43:25.681Z,49.13
2023-03-20T15:46:17.490Z,48.08
2023-03-20T15:48:48.740Z,40.13
2023-03-20T15:51:16.587Z,42.85
2023-03-20T15:53:46.523Z,45.85
2023-03-20T15:56:18.700Z,45.55
2023-03-20T15:58:48.960Z,42.10
2023-03-20T16:01:22.007Z,45.83
2023-03-20T16:03:49.497Z,44.80
2023-03-20T16:06:20.708Z,42.95
2023-03-20T16:09:01.058Z,46.53
2023-03-20T16:11:40.642Z,44.35
2023-03-20T16:14:14.343Z,47.17
2023-03-20T16:16:41.466Z,48.13
2023-03-20T16:19:12.084Z,44.03
2023-03-20T16:21:43.890Z,47.28
2023-03-20T16:24:17.992Z,46.92
2023-03-20T16:26:48.559Z,45.00
2023-03-20T16:29:16.246Z,40.85
2023-03-20T16:31:50.320Z,43.83
2023-03-20T16:34:22.129Z,47.17
2023-03-20T16:36:55.930Z,55.03
2023-03-20T16:39:26.310Z,48.55
2023-03-20T16:41:57.691Z,47.90
2023-03-20T16:44:32.226Z,48.30
2023-03-20T16:47:14.273Z,44.97
2023-03-20T16:52:14.940Z,44.33
2023-03-20T16:54:42.644Z,46.65
2023-03-20T16:57:15.814Z,56.08
2023-03-20T16:59:42.879Z,47.28
2023-03-20T17:02:37.480Z,50.50
2023-03-20T17:05:11.058Z,49.35
2023-03-20T17:07:38.476Z,47.58
2023-03-20T17:10:20.191Z,55.33
2023-03-20T17:12:49.069Z,56.75
2023-03-20T17:15:18.533Z,48.17
2023-03-20T17:17:45.635Z,50.05
2023-03-20T17:20:26.450Z,54.55
2023-03-20T17:22:53.904Z,51.22
2023-03-20T17:25:21.096Z,54.25
2023-03-20T17:27:48.258Z,53.78
2023-03-20T17:30:25.582Z,57.05
2023-03-20T17:32:52.988Z,56.20
2023-03-20T17:35:20.401Z,60.58
2023-03-20T17:37:48.789Z,62.00
2023-03-20T17:40:25.533Z,66.45
2023-03-20T17:42:52.326Z,62.25
2023-03-20T17:45:21.308Z,56.47
2023-03-20T17:47:48.870Z,59.15
2023-03-20T17:50:25.518Z,60.83
2023-03-20T17:52:52.610Z,65.10
2023-03-20T17:55:19.878Z,58.47
2023-03-20T17:57:46.835Z,56.35
2023-03-20T18:00:22.662Z,65.93
2023-03-20T18:02:49.829Z,56.63
2023-03-20T18:05:17.183Z,61.33
2023-03-20T18:07:44.381Z,63.67
2023-03-20T18:10:28.180Z,59.60
2023-03-20T18:12:54.952Z,61.15
2023-03-20T18:15:21.665Z,64.78
2023-03-20T18:17:48.432Z,52.60
2023-03-20T18:20:31.352Z,56.75
2023-03-20T18:22:58.446Z,54.38
2023-03-20T18:25:29.164Z,57.47
2023-03-20T18:27:58.116Z,63.50
2023-03-20T18:30:30.295Z,70.80
2023-03-20T18:32:57.113Z,68.55
2023-03-20T18:35:23.916Z,77.18
2023-03-20T18:37:50.858Z,60.42
2023-03-20T18:40:29.723Z,62.17
2023-03-20T18:42:57.798Z,66.45
2023-03-20T18:45:27.660Z,63.90
2023-03-20T18:47:55.882Z,71.82
2023-03-20T18:50:27.535Z,60.33
2023-03-20T18:52:55.944Z,63.42
2023-03-20T18:55:24.318Z,65.18
2023-03-20T18:57:51.572Z,62.60
2023-03-20T19:00:23.124Z,65.88
2023-03-20T19:02:51.091Z,59.50
2023-03-20T19:05:19.310Z,62.45
2023-03-20T19:07:47.493Z,65.15
2023-03-20T19:10:36.975Z,64.13
2023-03-20T19:13:06.523Z,64.15
2023-03-20T19:15:36.297Z,61.33
2023-03-20T19:18:08.538Z,62.33
2023-03-20T19:20:37.115Z,63.60
2023-03-20T19:23:06.288Z,64.50
2023-03-20T19:25:33.630Z,70.40
2023-03-20T19:28:01.134Z,68.53
2023-03-20T19:30:39.506Z,63.47
2023-03-20T19:33:07.152Z,63.28
2023-03-20T19:38:22.459Z,70.70
2023-03-20T19:40:53.096Z,61.15
2023-03-20T19:43:23.105Z,61.20
2023-03-20T19:45:56.450Z,70.55
2023-03-20T19:48:46.037Z,57.72
2023-03-20T19:51:28.471Z,60.72
2023-03-20T19:53:56.212Z,60.15
2023-03-20T19:56:23.707Z,63.83
2023-03-20T19:58:50.916Z,61.65
2023-03-20T20:01:21.426Z,57.88
2023-03-20T20:03:49.812Z,60.58
2023-03-20T20:06:20.112Z,63.53
2023-03-20T20:08:49.533Z,59.33
2023-03-20T20:11:18.416Z,67.03
2023-03-20T20:14:09.014Z,61.67
2023-03-20T20:16:34.416Z,61.90
2023-03-20T20:19:01.342Z,63.80
2023-03-20T20:22:13.229Z,65.45
2023-03-20T20:24:16.359Z,63.33
2023-03-20T20:26:53.457Z,64.38
2023-03-20T20:29:22.254Z,64.28
2023-03-20T20:31:49.141Z,62.33
2023-03-20T20:37:51.142Z,69.57
2023-03-20T20:39:50.470Z,68.05
2023-03-20T20:42:17.802Z,68.78
2023-03-20T20:44:44.664Z,69.35
2023-03-20T20:47:12.070Z,66.38
2023-03-20T20:49:39.178Z,64.00
2023-03-20T20:52:07.056Z,64.65
2023-03-20T20:54:34.309Z,68.10
2023-03-20T20:57:01.923Z,71.68
2023-03-20T20:59:29.275Z,77.47
2023-03-20T21:01:56.597Z,68.47
2023-03-20T21:04:23.846Z,68.15
2023-03-20T21:09:37.547Z,66.40
2023-03-20T21:12:05.186Z,71.05
2023-03-20T21:14:32.315Z,76.50
2023-03-20T21:17:01.925Z,78.50
2023-03-20T21:19:40.451Z,74.97
2023-03-20T21:22:09.391Z,76.97
2023-03-20T21:24:36.706Z,82.90
2023-03-20T21:27:06.735Z,74.63
2023-03-20T21:29:34.138Z,70.90
2023-03-20T21:32:01.079Z,70.43
2023-03-20T21:34:28.994Z,75.97
2023-03-20T21:36:57.441Z,75.13
2023-03-20T21:39:25.298Z,74.05
2023-03-20T21:41:52.123Z,77.07
2023-03-20T21:44:48.793Z,71.75
2023-03-20T21:53:17.933Z,76.97
2023-03-20T22:01:39.726Z,72.88
2023-03-20T22:04:45.046Z,76.65
2023-03-20T22:15:38.812Z,73.63
2023-03-20T22:32:47.187Z,68.53
2023-03-20T22:40:59.288Z,85.35
2023-03-20T22:43:51.084Z,74.45
2023-03-20T22:46:03.406Z,70.78
2023-03-20T22:48:33.652Z,71.03
2023-03-20T22:51:00.372Z,69.72
2023-03-20T22:53:27.166Z,68.57
2023-03-20T22:55:54.033Z,70.05
2023-03-20T22:58:20.877Z,78.78
2023-03-20T23:00:47.832Z,74.93
2023-03-20T23:03:29.514Z,72.13
2023-03-20T23:06:10.535Z,72.93
2023-03-20T23:08:48.140Z,77.15
2023-03-20T23:11:20.023Z,72.25
2023-03-20T23:13:47.166Z,67.40
2023-03-20T23:16:14.098Z,66.40
2023-03-20T23:18:41.270Z,67.18
2023-03-20T23:21:08.681Z,70.13
2023-03-20T23:23:35.599Z,74.57
2023-03-20T23:26:14.098Z,66.13
2023-03-20T23:28:42.998Z,70.75
2023-03-20T23:31:15.443Z,68.47
2023-03-20T23:33:43.626Z,66.18
2023-03-20T23:36:21.420Z,65.55
2023-03-20T23:38:51.758Z,62.60
2023-03-20T23:41:19.095Z,61.60
2023-03-20T23:43:46.098Z,53.80
2023-03-20T23:46:15.076Z,56.95
2023-03-20T23:48:41.854Z,58.47
2023-03-20T23:51:09.199Z,58.75
2023-03-20T23:53:36.283Z,59.35
2023-03-20T23:56:03.161Z,53.10
2023-03-20T23:58:30.515Z,50.13
